Portada
METAR-TAF:

METAR-TAF

Aeroports :

Ushuaia, Argentina

latitud: 54-48S, longitud: 068-19W, altitud: 16 m

Observació

L'informe es va fer fa 51 minuts, a les 08:00 UTC
Vent 5 kt del Sud/Sud-Oest
Temperatura 8°C
Humitat 87%
Pressió 1005 hPa
Visibilitat 10 km o més
Escasses núvols a una alçada de 3500 ft
Cel ennuvolat a una alçada de 7000 ft

METAR: SAWH 210800Z 21005KT 9999 FEW035 BKN070 08/06 Q1005

Hora: 05:51 (08:51 UTC)

Pronòstic

L'informe es va fer fa 3 hores i 51 minuts, a les 05:00 UTC
Pronòstic vàlid del 21 a les 06 UTC al 22 a les 06 UTC
Vent 10 kt del Nord/Nord-Oest
Visibilitat 10 km o més
Núvols disperses a una alçada de 3000 ft
Cel ennuvolat a una alçada de 7000 ft
Evolucionant progressivament
l' 21 a les 20 UTC al 21 a les 22 UTC
Vent 5 kt del Nord
Cel ennuvolat a una alçada de 3000 ft
Cel cobert a una alçada de 6000 ft

TAF: SAWH 210500Z 2106/2206 34010KT 9999 SCT030 BKN070 TX10/2118Z TN07/2111Z BECMG 2120/2122 36005KT BKN030 OVC060

Observacions i pronòstics meteorològics de més de 4000 aeroports (METAR i TAF).

Les estacions disponibles són els punts grocs i vermells al mapa.

Posi el ratolí al punt desitjat per veure el nom de l'estació.

Feu clic per veure les observacions i els pronòstics meteorològics.

Per canviar el mapa: feu clic els botons verds amb una creu de color negre per apropar; al botó verd amb un guió per allunyar la imatge; o en les fletxes verdes per a mapes adjacents.


METAR-TAF: